createdAt,value
2017-12-17T00:01:13.910Z,9.40
2017-12-17T00:03:40.608Z,9.20
2017-12-17T00:06:06.554Z,8.70
2017-12-17T00:08:32.562Z,9.43
2017-12-17T00:10:58.539Z,7.47
2017-12-17T00:13:24.505Z,6.47
2017-12-17T00:15:51.188Z,6.00
2017-12-17T00:18:17.201Z,7.27
2017-12-17T00:20:43.966Z,7.40
2017-12-17T00:23:09.892Z,8.00
2017-12-17T00:25:36.631Z,6.50
2017-12-17T00:28:03.320Z,6.50
2017-12-17T00:30:29.307Z,8.40
2017-12-17T00:32:55.292Z,7.43
2017-12-17T00:35:21.261Z,8.43
2017-12-17T00:37:47.352Z,7.70
2017-12-17T00:40:13.332Z,7.43
2017-12-17T00:42:39.309Z,7.70
2017-12-17T00:45:06.144Z,6.70
2017-12-17T00:47:32.161Z,8.27
2017-12-17T00:49:58.177Z,8.27
2017-12-17T00:52:24.165Z,7.97
2017-12-17T00:54:50.108Z,6.50
2017-12-17T00:57:16.882Z,7.00
2017-12-17T00:59:42.884Z,8.13
2017-12-17T01:02:08.832Z,9.10
2017-12-17T01:04:35.560Z,7.63
2017-12-17T01:07:01.611Z,8.33
2017-12-17T01:09:27.559Z,8.17
2017-12-17T01:11:54.283Z,9.40
2017-12-17T01:14:20.256Z,9.57
2017-12-17T01:16:46.994Z,8.13
2017-12-17T01:19:13.726Z,7.67
2017-12-17T01:21:39.705Z,7.80
2017-12-17T01:24:05.644Z,9.60
2017-12-17T01:26:32.328Z,8.63
2017-12-17T01:28:58.368Z,9.27
2017-12-17T01:31:24.368Z,8.50
2017-12-17T01:33:51.091Z,9.50
2017-12-17T01:36:17.035Z,10.13
2017-12-17T01:38:46.625Z,9.17
2017-12-17T01:41:12.656Z,10.40
2017-12-17T01:43:39.280Z,8.80
2017-12-17T01:46:05.246Z,9.80
2017-12-17T01:48:31.192Z,8.20
2017-12-17T01:50:57.170Z,9.17
2017-12-17T01:53:23.121Z,10.00
2017-12-17T01:55:49.096Z,7.73
2017-12-17T01:58:15.049Z,7.07
2017-12-17T02:00:41.079Z,9.00
2017-12-17T02:03:07.896Z,7.80
2017-12-17T02:05:33.928Z,7.90
2017-12-17T02:07:59.868Z,8.40
2017-12-17T02:10:25.873Z,8.97
2017-12-17T02:12:52.630Z,8.23
2017-12-17T02:15:18.538Z,8.17
2017-12-17T02:17:44.517Z,8.20
2017-12-17T02:20:10.461Z,8.47
2017-12-17T02:22:36.452Z,8.50
2017-12-17T02:25:02.388Z,8.23
2017-12-17T02:27:29.114Z,8.07
2017-12-17T02:29:56.902Z,8.67
2017-12-17T02:32:22.888Z,8.30
2017-12-17T02:34:48.842Z,8.60
2017-12-17T02:37:14.793Z,8.90
2017-12-17T02:39:40.801Z,9.43
2017-12-17T02:42:06.737Z,9.60
2017-12-17T02:44:32.677Z,7.30
2017-12-17T02:46:58.688Z,8.97
2017-12-17T02:49:24.662Z,9.10
2017-12-17T02:51:50.630Z,9.07
2017-12-17T02:54:16.652Z,9.00
2017-12-17T02:56:42.633Z,7.80
2017-12-17T02:59:08.609Z,9.13
2017-12-17T03:01:34.630Z,8.33
2017-12-17T03:04:00.642Z,9.63
2017-12-17T03:06:26.642Z,9.00
2017-12-17T03:08:52.613Z,9.00
2017-12-17T03:11:18.589Z,9.63
2017-12-17T03:13:44.571Z,8.30
2017-12-17T03:16:11.266Z,8.50
2017-12-17T03:18:37.278Z,8.93
2017-12-17T03:21:03.234Z,8.90
2017-12-17T03:23:29.196Z,9.03
2017-12-17T03:25:55.203Z,8.80
2017-12-17T03:28:21.214Z,8.63
2017-12-17T03:30:47.932Z,8.67
2017-12-17T03:33:13.910Z,8.50
2017-12-17T03:35:39.904Z,7.37
2017-12-17T03:38:05.902Z,8.93
2017-12-17T03:40:31.858Z,8.33
2017-12-17T03:42:57.858Z,8.60
2017-12-17T03:45:23.810Z,8.33
2017-12-17T03:47:49.817Z,7.97
2017-12-17T03:50:16.509Z,7.27
2017-12-17T03:52:42.482Z,7.10
2017-12-17T03:55:08.420Z,7.73
2017-12-17T03:57:34.401Z,7.90
2017-12-17T04:00:00.373Z,8.80
2017-12-17T04:02:26.348Z,8.33
2017-12-17T04:04:52.325Z,7.83
2017-12-17T04:07:18.282Z,8.20
2017-12-17T04:09:44.287Z,9.47
2017-12-17T04:12:10.248Z,8.20
2017-12-17T04:14:36.245Z,8.57
2017-12-17T04:17:02.248Z,10.03
2017-12-17T04:19:28.217Z,7.60
2017-12-17T04:21:54.197Z,7.47
2017-12-17T04:24:20.196Z,8.37
2017-12-17T04:26:46.137Z,7.80
2017-12-17T04:29:12.100Z,7.60
2017-12-17T04:31:38.082Z,8.10
2017-12-17T04:34:04.048Z,7.40
2017-12-17T04:36:30.004Z,7.50
2017-12-17T04:38:55.979Z,8.67
2017-12-17T04:41:22.710Z,8.40
2017-12-17T04:43:48.644Z,9.63
2017-12-17T04:46:14.625Z,7.97
2017-12-17T04:48:40.602Z,8.70
2017-12-17T04:51:06.548Z,7.43
2017-12-17T04:53:32.557Z,8.03
2017-12-17T04:55:58.548Z,8.30
2017-12-17T04:58:25.281Z,8.17
2017-12-17T05:00:51.230Z,7.30
2017-12-17T05:03:17.962Z,10.00
2017-12-17T05:05:43.919Z,8.00
2017-12-17T05:08:10.634Z,8.63
2017-12-17T05:10:36.573Z,7.37
2017-12-17T05:13:02.548Z,9.47
2017-12-17T05:15:29.268Z,7.20
2017-12-17T05:17:55.231Z,7.73
2017-12-17T05:20:21.954Z,7.30
2017-12-17T05:22:47.902Z,9.83
2017-12-17T05:25:13.921Z,9.77
2017-12-17T05:27:39.869Z,7.97
2017-12-17T05:30:05.825Z,8.10
2017-12-17T05:32:32.541Z,8.50
2017-12-17T05:34:58.515Z,7.63
2017-12-17T05:37:25.246Z,8.67
2017-12-17T05:39:51.189Z,8.47
2017-12-17T05:42:17.166Z,8.07
2017-12-17T05:44:43.139Z,7.43
2017-12-17T05:47:09.153Z,8.57
2017-12-17T05:49:35.114Z,6.97
2017-12-17T05:52:01.158Z,7.37
2017-12-17T05:54:27.444Z,7.60
2017-12-17T05:56:53.481Z,7.00
2017-12-17T05:59:19.433Z,7.70
2017-12-17T06:01:45.437Z,8.57
2017-12-17T06:04:12.138Z,8.00
2017-12-17T06:06:38.082Z,8.67
2017-12-17T06:09:04.069Z,8.60
2017-12-17T06:11:30.765Z,9.90
2017-12-17T06:13:56.741Z,9.33
2017-12-17T06:16:23.482Z,8.57
2017-12-17T06:18:49.425Z,9.33
2017-12-17T06:21:15.402Z,7.90
2017-12-17T06:23:41.418Z,8.13
2017-12-17T06:26:08.122Z,8.80
2017-12-17T06:28:34.070Z,8.17
2017-12-17T06:31:00.153Z,7.47
2017-12-17T06:33:26.112Z,9.73
2017-12-17T06:35:52.070Z,8.50
2017-12-17T06:38:18.064Z,7.90
2017-12-17T06:40:44.023Z,8.77
2017-12-17T06:43:10.025Z,8.43
2017-12-17T06:45:36.717Z,9.17
2017-12-17T06:48:02.672Z,9.53
2017-12-17T06:50:28.653Z,9.53
2017-12-17T06:52:54.633Z,8.40
2017-12-17T06:55:20.577Z,8.50
2017-12-17T06:57:46.555Z,8.60
2017-12-17T07:00:12.514Z,9.67
2017-12-17T07:02:38.502Z,10.00
2017-12-17T07:05:04.622Z,9.30
2017-12-17T07:07:30.597Z,8.57
2017-12-17T07:09:57.350Z,9.73
2017-12-17T07:12:23.319Z,9.00
2017-12-17T07:14:49.273Z,9.00
2017-12-17T07:17:15.254Z,9.13
2017-12-17T07:19:42.024Z,9.10
2017-12-17T07:22:07.970Z,8.17
2017-12-17T07:24:33.998Z,8.30
2017-12-17T07:27:00.003Z,8.60
2017-12-17T07:29:26.744Z,7.50
2017-12-17T07:31:52.693Z,9.27
2017-12-17T07:34:19.432Z,9.17
2017-12-17T07:36:45.408Z,9.70
2017-12-17T07:39:11.381Z,9.80
2017-12-17T07:41:38.077Z,9.83
2017-12-17T07:44:04.029Z,10.80
2017-12-17T07:46:30.006Z,11.43
2017-12-17T07:48:55.973Z,12.60
2017-12-17T07:51:22.001Z,15.07
2017-12-17T07:53:47.954Z,10.97
2017-12-17T07:56:14.649Z,11.60
2017-12-17T07:58:40.633Z,12.90
2017-12-17T08:01:06.603Z,10.50
2017-12-17T08:03:32.541Z,9.30
2017-12-17T08:05:58.584Z,9.70
2017-12-17T08:08:24.529Z,9.87
2017-12-17T08:10:50.485Z,8.07
2017-12-17T08:13:17.218Z,8.47
2017-12-17T08:15:43.203Z,8.30
2017-12-17T08:18:09.190Z,8.87
2017-12-17T08:20:35.246Z,10.03
2017-12-17T08:23:01.938Z,8.73
2017-12-17T08:25:27.905Z,10.00
2017-12-17T08:27:53.897Z,9.60
2017-12-17T08:30:19.854Z,7.33
2017-12-17T08:32:45.837Z,8.70
2017-12-17T08:35:12.566Z,9.20
2017-12-17T08:37:38.531Z,9.47
2017-12-17T08:40:05.253Z,9.47
2017-12-17T08:42:31.218Z,8.40
2017-12-17T08:44:57.947Z,10.63
2017-12-17T08:47:23.905Z,10.40
2017-12-17T08:49:50.641Z,9.23
2017-12-17T08:52:16.638Z,10.10
2017-12-17T08:54:42.586Z,9.33
2017-12-17T08:57:08.596Z,7.70
2017-12-17T08:59:34.610Z,7.97
2017-12-17T09:02:00.591Z,7.83
2017-12-17T09:04:26.634Z,9.97
2017-12-17T09:06:52.621Z,10.80
2017-12-17T09:09:19.297Z,12.03
2017-12-17T09:11:45.237Z,9.63
2017-12-17T09:14:11.205Z,11.43
2017-12-17T09:16:37.181Z,8.07
2017-12-17T09:19:03.917Z,9.30
2017-12-17T09:21:29.900Z,6.20
2017-12-17T09:23:56.012Z,8.17
2017-12-17T09:26:21.940Z,7.20
2017-12-17T09:28:48.715Z,8.57
2017-12-17T09:31:14.696Z,10.03
2017-12-17T09:33:40.665Z,7.27
2017-12-17T09:36:07.388Z,7.20
2017-12-17T09:38:33.341Z,7.93
2017-12-17T09:40:59.362Z,7.67
2017-12-17T09:43:25.376Z,7.70
2017-12-17T09:45:51.346Z,7.20
2017-12-17T09:48:17.332Z,6.37
2017-12-17T09:50:43.311Z,7.30
2017-12-17T09:53:09.304Z,7.40
2017-12-17T09:55:35.253Z,8.23
2017-12-17T09:58:01.278Z,7.90
2017-12-17T10:00:27.291Z,7.70
2017-12-17T10:02:53.282Z,7.67
2017-12-17T10:05:19.250Z,9.20
2017-12-17T10:07:45.982Z,9.20
2017-12-17T10:10:11.977Z,9.33
2017-12-17T10:12:37.960Z,9.20
2017-12-17T10:15:03.902Z,8.50
2017-12-17T10:17:29.881Z,7.50
2017-12-17T10:19:55.889Z,8.47
2017-12-17T10:22:22.617Z,7.67
2017-12-17T10:24:48.653Z,8.83
2017-12-17T10:27:14.612Z,10.00
2017-12-17T10:29:40.590Z,10.07
2017-12-17T10:32:06.543Z,9.73
2017-12-17T10:34:32.597Z,6.20
2017-12-17T10:36:58.579Z,4.83
2017-12-17T10:39:24.566Z,3.30
2017-12-17T10:41:50.510Z,4.30
2017-12-17T10:44:16.461Z,2.60
2017-12-17T10:46:42.474Z,3.03
2017-12-17T10:49:08.438Z,2.90
2017-12-17T10:51:35.162Z,3.13
2017-12-17T10:54:01.148Z,2.63
2017-12-17T10:56:27.135Z,2.53
2017-12-17T10:58:53.121Z,3.43
2017-12-17T11:01:19.126Z,2.50
2017-12-17T11:03:45.853Z,2.87
2017-12-17T11:06:11.841Z,2.07
2017-12-17T11:08:37.800Z,2.40
2017-12-17T11:11:03.786Z,3.00
2017-12-17T11:13:30.485Z,3.33
2017-12-17T11:15:56.466Z,3.90
2017-12-17T11:18:22.475Z,2.87
2017-12-17T11:20:49.167Z,3.40
2017-12-17T11:23:15.860Z,4.60
2017-12-17T11:25:41.887Z,3.73
2017-12-17T11:28:07.887Z,4.50
2017-12-17T11:30:33.833Z,4.03
2017-12-17T11:33:00.589Z,4.20
2017-12-17T11:35:27.335Z,5.77
2017-12-17T11:37:54.027Z,3.93
2017-12-17T11:40:20.060Z,4.67
2017-12-17T11:42:46.038Z,4.63
2017-12-17T11:45:12.045Z,5.30
2017-12-17T11:47:38.047Z,4.90
2017-12-17T11:50:04.781Z,4.33
2017-12-17T11:52:30.761Z,5.10
2017-12-17T11:54:56.738Z,5.33
2017-12-17T11:57:22.694Z,5.40
2017-12-17T11:59:49.410Z,5.57
2017-12-17T12:02:15.513Z,6.03
2017-12-17T12:04:41.524Z,6.23
2017-12-17T12:07:07.526Z,6.90
2017-12-17T12:09:33.489Z,6.03
2017-12-17T12:11:59.512Z,5.87
2017-12-17T12:14:25.500Z,5.80
2017-12-17T12:16:51.476Z,6.37
2017-12-17T12:19:17.494Z,6.30
2017-12-17T12:21:43.487Z,5.60
2017-12-17T12:24:10.197Z,5.67
2017-12-17T12:26:36.187Z,5.60
2017-12-17T12:29:02.203Z,5.53
2017-12-17T12:31:28.942Z,5.87
2017-12-17T12:33:55.010Z,5.67
2017-12-17T12:36:20.997Z,5.77
2017-12-17T12:38:46.933Z,6.60
2017-12-17T12:41:12.925Z,7.27
2017-12-17T12:43:38.904Z,6.63
2017-12-17T12:46:04.880Z,7.10
2017-12-17T12:48:31.618Z,6.50
2017-12-17T12:50:57.625Z,5.10
2017-12-17T12:53:24.344Z,5.57
2017-12-17T12:55:50.322Z,6.70
2017-12-17T12:58:16.311Z,6.20
2017-12-17T13:00:42.286Z,5.70
2017-12-17T13:03:08.310Z,5.77
2017-12-17T13:05:34.250Z,5.83
2017-12-17T13:08:00.189Z,5.37
2017-12-17T13:10:26.204Z,5.53
2017-12-17T13:12:52.159Z,6.37
2017-12-17T13:15:18.184Z,5.47
2017-12-17T13:17:44.152Z,5.50
2017-12-17T13:20:10.146Z,4.60
2017-12-17T13:22:36.109Z,5.27
2017-12-17T13:25:02.113Z,5.10
2017-12-17T13:27:28.078Z,4.10
2017-12-17T13:29:54.073Z,5.87
2017-12-17T13:32:20.045Z,4.73
2017-12-17T13:34:46.026Z,5.63
2017-12-17T13:37:12.091Z,4.03
2017-12-17T13:39:38.130Z,5.43
2017-12-17T13:42:04.144Z,5.07
2017-12-17T13:44:30.993Z,4.63
2017-12-17T13:46:56.966Z,5.10
2017-12-17T13:49:22.946Z,5.00
2017-12-17T13:51:48.968Z,5.30
2017-12-17T13:54:15.007Z,4.20
2017-12-17T13:56:40.973Z,5.33
2017-12-17T13:59:06.954Z,5.23
2017-12-17T14:01:32.897Z,6.27
2017-12-17T14:03:58.889Z,8.27
2017-12-17T14:06:25.577Z,5.63
2017-12-17T14:08:51.599Z,6.47
2017-12-17T14:11:17.558Z,6.77
2017-12-17T14:13:43.628Z,5.90
2017-12-17T14:16:09.612Z,5.70
2017-12-17T14:18:35.653Z,6.80
2017-12-17T14:21:01.687Z,5.43
2017-12-17T14:23:28.487Z,5.83
2017-12-17T14:25:54.437Z,5.60
2017-12-17T14:28:20.405Z,5.40
2017-12-17T14:30:47.077Z,6.80
2017-12-17T14:33:13.112Z,6.30
2017-12-17T14:35:39.115Z,5.17
2017-12-17T14:38:05.115Z,6.37
2017-12-17T14:40:31.157Z,5.40
2017-12-17T14:42:57.154Z,8.23
2017-12-17T14:45:23.198Z,5.93
2017-12-17T14:47:49.187Z,6.17
2017-12-17T14:50:15.174Z,5.60
2017-12-17T14:52:41.200Z,4.60
2017-12-17T14:55:07.141Z,5.70
2017-12-17T14:57:33.168Z,5.37
2017-12-17T14:59:59.138Z,5.53
2017-12-17T15:02:25.182Z,5.97
2017-12-17T15:04:51.130Z,5.73
2017-12-17T15:07:17.109Z,7.73
2017-12-17T15:09:43.069Z,8.27
2017-12-17T15:12:09.036Z,8.40
2017-12-17T15:14:34.977Z,8.10
2017-12-17T15:17:01.030Z,7.40
2017-12-17T15:19:27.013Z,6.37
2017-12-17T15:21:53.020Z,6.73
2017-12-17T15:24:19.725Z,7.00
2017-12-17T15:26:45.719Z,5.63
2017-12-17T15:29:11.702Z,4.10
2017-12-17T15:31:37.644Z,4.10
2017-12-17T15:34:03.617Z,4.40
2017-12-17T15:36:29.646Z,3.87
2017-12-17T15:38:56.373Z,3.80
2017-12-17T15:41:22.354Z,4.60
2017-12-17T15:43:48.287Z,4.43
2017-12-17T15:46:14.285Z,4.13
2017-12-17T15:48:40.284Z,4.27
2017-12-17T15:51:06.305Z,3.50
2017-12-17T15:53:32.286Z,4.40
2017-12-17T15:55:58.296Z,5.60
2017-12-17T15:58:24.348Z,5.23
2017-12-17T16:00:51.308Z,6.67
2017-12-17T16:03:17.266Z,5.67
2017-12-17T16:05:43.258Z,6.53
2017-12-17T16:08:09.202Z,7.60
2017-12-17T16:10:35.186Z,6.83
2017-12-17T16:13:01.993Z,7.50
2017-12-17T16:15:28.044Z,7.77
2017-12-17T16:17:54.060Z,8.07
2017-12-17T16:20:20.019Z,7.70
2017-12-17T16:22:46.047Z,6.57
2017-12-17T16:25:12.048Z,7.70
2017-12-17T16:27:38.070Z,7.10
2017-12-17T16:30:04.786Z,6.97
2017-12-17T16:32:30.829Z,7.00
2017-12-17T16:34:56.825Z,7.10
2017-12-17T16:37:22.783Z,7.80
2017-12-17T16:39:48.804Z,8.10
2017-12-17T16:42:14.845Z,9.90
2017-12-17T16:44:40.872Z,8.00
2017-12-17T16:47:06.894Z,9.70
2017-12-17T16:49:32.892Z,7.93
2017-12-17T16:51:58.910Z,7.70
2017-12-17T16:54:24.939Z,7.27
2017-12-17T16:56:50.968Z,8.57
2017-12-17T16:59:16.922Z,7.80
2017-12-17T17:01:43.704Z,8.83
2017-12-17T17:04:10.477Z,8.50
2017-12-17T17:06:36.526Z,7.90
2017-12-17T17:09:02.482Z,8.80
2017-12-17T17:11:28.509Z,7.67
2017-12-17T17:13:54.546Z,7.77
2017-12-17T17:16:20.560Z,8.60
2017-12-17T17:18:46.601Z,6.90
2017-12-17T17:21:12.608Z,6.73
2017-12-17T17:23:38.545Z,6.60
2017-12-17T17:26:05.306Z,7.20
2017-12-17T17:28:32.052Z,6.40
2017-12-17T17:30:58.846Z,6.03
2017-12-17T17:33:24.904Z,6.13
2017-12-17T17:35:51.640Z,6.40
2017-12-17T17:38:17.616Z,8.90
2017-12-17T17:43:16.363Z,7.40
2017-12-17T17:45:42.347Z,7.83
2017-12-17T17:48:08.380Z,7.13
2017-12-17T17:50:34.429Z,7.67
2017-12-17T17:53:00.429Z,7.97
2017-12-17T17:55:27.231Z,7.30
2017-12-17T17:57:53.265Z,6.97
2017-12-17T18:00:19.288Z,8.17
2017-12-17T18:02:45.234Z,5.70
2017-12-17T18:05:11.213Z,6.93
2017-12-17T18:07:37.277Z,7.57
2017-12-17T18:10:03.278Z,7.63
2017-12-17T18:12:29.280Z,8.60
2017-12-17T18:14:55.288Z,8.00
2017-12-17T18:17:21.501Z,7.30
2017-12-17T18:19:48.249Z,7.00
2017-12-17T18:22:14.261Z,8.33
2017-12-17T18:24:40.270Z,6.90
2017-12-17T18:27:06.222Z,7.67
2017-12-17T18:29:32.257Z,6.13
2017-12-17T18:31:58.275Z,8.00
2017-12-17T18:34:24.221Z,8.40
2017-12-17T18:36:50.288Z,7.07
2017-12-17T18:39:16.367Z,8.40
2017-12-17T18:41:43.108Z,9.70
2017-12-17T18:44:09.884Z,9.50
2017-12-17T18:46:35.871Z,9.40
2017-12-17T18:49:01.868Z,8.70
2017-12-17T18:51:27.949Z,9.10
2017-12-17T18:53:53.961Z,9.87
2017-12-17T18:56:19.992Z,12.00
2017-12-17T18:58:45.952Z,10.63
2017-12-17T19:01:12.754Z,10.30
2017-12-17T19:03:38.777Z,10.40
2017-12-17T19:06:05.509Z,9.50
2017-12-17T19:08:31.495Z,10.03
2017-12-17T19:10:57.536Z,9.23
2017-12-17T19:13:23.571Z,9.70
2017-12-17T19:15:49.625Z,8.93
2017-12-17T19:18:15.625Z,8.63
2017-12-17T19:20:42.423Z,10.67
2017-12-17T19:23:08.426Z,8.70
2017-12-17T19:25:34.450Z,9.60
2017-12-17T19:28:01.218Z,8.70
2017-12-17T19:30:27.276Z,7.90
2017-12-17T19:32:53.293Z,8.67
2017-12-17T19:35:19.325Z,8.80
2017-12-17T19:37:45.309Z,7.80
2017-12-17T19:40:11.341Z,8.53
2017-12-17T19:42:37.369Z,7.20
2017-12-17T19:45:03.437Z,8.77
2017-12-17T19:47:29.473Z,7.17
2017-12-17T19:49:55.513Z,7.47
2017-12-17T19:52:21.622Z,6.97
2017-12-17T19:54:47.616Z,7.73
2017-12-17T19:57:14.400Z,7.07
2017-12-17T19:59:40.421Z,7.73
2017-12-17T20:02:06.430Z,8.90
2017-12-17T20:04:32.476Z,7.60
2017-12-17T20:06:59.295Z,8.70
2017-12-17T20:09:25.301Z,7.50
2017-12-17T20:11:51.337Z,7.47
2017-12-17T20:14:17.352Z,7.77
2017-12-17T20:16:43.400Z,7.20
2017-12-17T20:19:09.404Z,9.60
2017-12-17T20:21:35.456Z,9.73
2017-12-17T20:24:02.225Z,9.07
2017-12-17T20:26:28.210Z,10.50
2017-12-17T20:28:54.984Z,11.90
2017-12-17T20:31:21.034Z,12.17
2017-12-17T20:33:47.913Z,10.70
2017-12-17T20:36:13.950Z,11.10
2017-12-17T20:38:39.969Z,11.00
2017-12-17T20:41:06.751Z,9.63
2017-12-17T20:43:32.781Z,9.60
2017-12-17T20:45:58.850Z,9.30
2017-12-17T20:48:25.588Z,10.20
2017-12-17T20:50:51.592Z,9.67
2017-12-17T20:53:18.396Z,9.77
2017-12-17T20:55:44.401Z,8.47
2017-12-17T20:58:10.433Z,11.00
2017-12-17T21:00:36.425Z,9.27
2017-12-17T21:03:02.472Z,9.17
2017-12-17T21:05:28.525Z,9.13
2017-12-17T21:07:55.289Z,9.20
2017-12-17T21:10:21.329Z,8.80
2017-12-17T21:12:48.060Z,8.90
2017-12-17T21:15:14.304Z,9.00
2017-12-17T21:17:40.292Z,8.70
2017-12-17T21:20:06.320Z,8.47
2017-12-17T21:22:32.313Z,9.50
2017-12-17T21:24:58.341Z,8.73
2017-12-17T21:27:24.376Z,8.57
2017-12-17T21:29:50.382Z,7.40
2017-12-17T21:32:16.435Z,7.73
2017-12-17T21:34:42.456Z,7.70
2017-12-17T21:37:08.476Z,6.90
2017-12-17T21:39:34.475Z,7.77
2017-12-17T21:42:00.524Z,7.70
2017-12-17T21:44:27.336Z,7.53
2017-12-17T21:46:53.357Z,8.00
2017-12-17T21:49:19.352Z,7.37
2017-12-17T21:51:46.126Z,7.57
2017-12-17T21:54:12.136Z,8.20
2017-12-17T21:56:38.164Z,7.73
2017-12-17T21:59:04.161Z,6.97
2017-12-17T22:01:37.172Z,8.27
2017-12-17T22:04:03.920Z,8.43
2017-12-17T22:06:29.966Z,7.30
2017-12-17T22:08:56.398Z,7.70
2017-12-17T22:11:22.409Z,8.30
2017-12-17T22:13:48.442Z,9.47
2017-12-17T22:16:14.472Z,8.90
2017-12-17T22:18:41.212Z,7.13
2017-12-17T22:21:08.014Z,9.00
2017-12-17T22:23:34.039Z,9.17
2017-12-17T22:26:00.049Z,7.83
2017-12-17T22:28:26.833Z,8.33
2017-12-17T22:30:52.864Z,8.53
2017-12-17T22:33:18.861Z,8.87
2017-12-17T22:35:44.911Z,9.17
2017-12-17T22:38:11.697Z,9.40
2017-12-17T22:40:37.716Z,10.20
2017-12-17T22:43:03.752Z,8.67
2017-12-17T22:45:29.814Z,8.70
2017-12-17T22:47:55.873Z,9.23
2017-12-17T22:50:21.902Z,9.23
2017-12-17T22:52:47.949Z,7.90
2017-12-17T22:55:13.931Z,8.50
2017-12-17T22:57:40.683Z,7.40
2017-12-17T23:00:07.389Z,8.17
2017-12-17T23:02:33.376Z,7.97
2017-12-17T23:05:00.213Z,7.60
2017-12-17T23:07:26.190Z,8.70
2017-12-17T23:09:52.184Z,8.10
2017-12-17T23:12:18.195Z,9.30
2017-12-17T23:14:51.280Z,9.33
2017-12-17T23:17:17.308Z,8.10
2017-12-17T23:19:43.253Z,9.20
2017-12-17T23:22:09.267Z,9.40
2017-12-17T23:24:35.292Z,8.80
2017-12-17T23:27:01.309Z,8.40
2017-12-17T23:29:27.271Z,8.03
2017-12-17T23:31:53.269Z,7.40
2017-12-17T23:34:19.275Z,8.03
2017-12-17T23:36:45.245Z,7.20
2017-12-17T23:39:11.241Z,8.57
2017-12-17T23:41:37.205Z,8.37
2017-12-17T23:44:03.179Z,8.93
2017-12-17T23:46:29.895Z,7.97
2017-12-17T23:48:55.945Z,6.97
2017-12-17T23:51:21.905Z,8.10
2017-12-17T23:53:47.861Z,8.70
2017-12-17T23:56:13.837Z,7.77
2017-12-17T23:58:39.821Z,8.97
